Time;durP1;ratioP1;P1;durP2;ratioP2;P2;SDS_P1;SDS_P2;PMS_P1;PMS_P2;Temp;Humidity;BMP_temperature;BMP_pressure;BME280_temperature;BME280_humidity;BME280_pressure;Samples;Min_cycle;Max_cycle;Signal;HPM_P1;HPM_P2
2023/01/06 00:01:25;;;;;;;6.57;5.50;;;;;;;;;;5036641;28;20217;-60
2023/01/06 00:03:54;;;;;;;6.47;5.63;;;;;;;;;;5036329;28;20212;-55
2023/01/06 00:06:26;;;;;;;6.10;5.50;;;;;;;;;;5036471;28;20212;-56
2023/01/06 00:08:55;;;;;;;7.03;5.43;;;;;;;;;;5036472;28;20201;-56
2023/01/06 00:11:22;;;;;;;7.03;5.73;;;;;;;;;;5036165;28;20228;-55
2023/01/06 00:13:50;;;;;;;6.00;5.20;;;;;;;;;;5036069;28;20208;-55
2023/01/06 00:16:20;;;;;;;6.17;5.57;;;;;;;;;;5035923;28;20205;-55
2023/01/06 00:18:47;;;;;;;6.83;6.17;;;;;;;;;;5035011;28;20628;-56
2023/01/06 00:21:15;;;;;;;6.53;5.07;;;;;;;;;;5035330;28;20681;-55
2023/01/06 00:23:42;;;;;;;6.17;5.27;;;;;;;;;;5035656;28;20205;-55
2023/01/06 00:26:09;;;;;;;6.70;5.97;;;;;;;;;;5035869;28;20205;-54
2023/01/06 00:28:37;;;;;;;7.13;6.30;;;;;;;;;;5035854;28;20634;-55
2023/01/06 00:31:09;;;;;;;6.77;6.00;;;;;;;;;;5035676;28;20276;-52
2023/01/06 00:33:39;;;;;;;8.67;6.23;;;;;;;;;;5035822;28;20636;-56
2023/01/06 00:36:09;;;;;;;7.70;6.73;;;;;;;;;;5034930;28;20299;-56
2023/01/06 00:38:37;;;;;;;6.87;6.07;;;;;;;;;;5035627;28;20213;-56
2023/01/06 00:42:02;;;;;;;6.70;6.00;;;;;;;;;;5035618;28;20209;-59
2023/01/06 00:43:55;;;;;;;6.80;6.10;;;;;;;;;;5034597;28;20247;-54
2023/01/06 00:46:25;;;;;;;7.90;6.90;;;;;;;;;;5035625;28;20215;-58
2023/01/06 00:48:54;;;;;;;7.50;6.70;;;;;;;;;;5035690;28;20212;-54
2023/01/06 00:51:34;;;;;;;7.93;6.87;;;;;;;;;;5035235;28;20255;-55
2023/01/06 00:54:01;;;;;;;6.37;5.77;;;;;;;;;;5035294;28;20212;-56
2023/01/06 00:56:28;;;;;;;6.23;5.63;;;;;;;;;;5035499;28;20204;-54
2023/01/06 00:58:56;;;;;;;6.13;5.53;;;;;;;;;;5035491;28;20231;-54
2023/01/06 01:01:23;;;;;;;5.77;5.17;;;;;;;;;;5035152;28;20209;-54
2023/01/06 01:03:51;;;;;;;6.50;5.83;;;;;;;;;;5035224;28;20212;-54
2023/01/06 01:06:18;;;;;;;6.33;5.27;;;;;;;;;;5035331;28;20204;-52
2023/01/06 01:08:45;;;;;;;5.63;5.03;;;;;;;;;;5034973;28;20630;-57
2023/01/06 01:12:08;;;;;;;6.23;5.07;;;;;;;;;;5034866;28;20733;-57
2023/01/06 01:14:02;;;;;;;7.50;5.27;;;;;;;;;;5034775;28;20540;-54
2023/01/06 01:16:29;;;;;;;7.87;5.97;;;;;;;;;;5034149;28;20204;-55
2023/01/06 01:18:56;;;;;;;7.00;6.10;;;;;;;;;;5033910;28;20208;-56
2023/01/06 01:21:24;;;;;;;6.70;6.03;;;;;;;;;;5034652;28;20634;-52
2023/01/06 01:23:51;;;;;;;7.07;5.90;;;;;;;;;;5035018;28;20224;-56
2023/01/06 01:26:18;;;;;;;6.87;5.83;;;;;;;;;;5034828;28;20215;-53
2023/01/06 01:28:45;;;;;;;5.43;4.93;;;;;;;;;;5034070;28;20220;-60
2023/01/06 01:31:14;;;;;;;5.53;4.93;;;;;;;;;;5034568;28;20752;-55
2023/01/06 01:33:42;;;;;;;6.47;5.70;;;;;;;;;;5034807;28;20201;-55
2023/01/06 01:36:12;;;;;;;6.60;5.27;;;;;;;;;;5034794;28;20216;-55
2023/01/06 01:38:39;;;;;;;7.17;5.60;;;;;;;;;;5034718;28;20585;-60
2023/01/06 01:41:06;;;;;;;7.30;6.00;;;;;;;;;;5033829;28;20243;-57
2023/01/06 01:43:57;;;;;;;7.07;5.77;;;;;;;;;;5033587;28;20250;-53
2023/01/06 01:46:26;;;;;;;7.10;6.07;;;;;;;;;;5034509;28;20275;-55
2023/01/06 01:48:57;;;;;;;9.33;6.33;;;;;;;;;;5034485;28;20213;-55
2023/01/06 01:51:38;;;;;;;11.23;7.73;;;;;;;;;;5034440;28;20224;-54
2023/01/06 01:54:10;;;;;;;12.90;9.27;;;;;;;;;;5033528;28;20213;-55
2023/01/06 01:56:41;;;;;;;11.30;9.70;;;;;;;;;;5034493;28;20211;-54
2023/01/06 01:59:16;;;;;;;11.83;10.13;;;;;;;;;;5017766;28;20208;-55
2023/01/06 02:01:44;;;;;;;12.30;9.53;;;;;;;;;;5033309;28;20574;-53
2023/01/06 02:04:12;;;;;;;12.27;8.70;;;;;;;;;;5034413;28;20197;-55
2023/01/06 02:06:40;;;;;;;13.70;10.07;;;;;;;;;;5017041;28;20204;-58
2023/01/06 02:09:58;;;;;;;14.03;10.83;;;;;;;;;;5033399;28;20239;-56
2023/01/06 02:12:26;;;;;;;16.10;11.63;;;;;;;;;;4988151;28;20584;-58
2023/01/06 02:14:53;;;;;;;15.23;11.77;;;;;;;;;;5034003;28;20209;-57
2023/01/06 02:17:39;;;;;;;13.70;10.57;;;;;;;;;;5034185;28;20258;-56
2023/01/06 02:20:09;;;;;;;13.53;10.20;;;;;;;;;;5033410;28;20726;-51
2023/01/06 02:22:55;;;;;;;12.90;10.70;;;;;;;;;;5034236;28;20196;-54
2023/01/06 02:25:44;;;;;;;12.67;10.57;;;;;;;;;;5033399;28;20209;-53
2023/01/06 02:28:21;;;;;;;12.93;10.10;;;;;;;;;;5033284;28;20205;-56
2023/01/06 02:31:13;;;;;;;13.23;10.57;;;;;;;;;;5033219;28;20212;-55
2023/01/06 02:33:56;;;;;;;13.27;10.37;;;;;;;;;;5033176;28;20200;-56
2023/01/06 02:36:36;;;;;;;14.20;10.37;;;;;;;;;;5033532;28;20185;-55
2023/01/06 02:39:14;;;;;;;15.47;11.40;;;;;;;;;;5033067;28;20215;-52
2023/01/06 02:41:47;;;;;;;14.93;11.47;;;;;;;;;;5032879;28;20657;-57
2023/01/06 02:44:29;;;;;;;16.37;11.80;;;;;;;;;;5016611;28;20200;-55
2023/01/06 02:47:24;;;;;;;19.30;11.63;;;;;;;;;;5017110;28;20664;-55
2023/01/06 02:50:02;;;;;;;15.07;11.83;;;;;;;;;;5033036;28;20205;-55
2023/01/06 02:52:42;;;;;;;17.83;12.20;;;;;;;;;;5032787;28;20290;-52
2023/01/06 02:55:15;;;;;;;16.43;12.33;;;;;;;;;;5032900;28;20696;-56
2023/01/06 02:57:52;;;;;;;18.27;14.40;;;;;;;;;;5035453;28;20626;-51
2023/01/06 03:00:36;;;;;;;19.90;13.27;;;;;;;;;;5037640;28;20222;-55
2023/01/06 03:03:14;;;;;;;16.90;12.77;;;;;;;;;;5036539;28;20212;-54
2023/01/06 03:05:44;;;;;;;17.27;11.97;;;;;;;;;;5020167;28;20633;-56
2023/01/06 03:08:15;;;;;;;16.23;12.13;;;;;;;;;;5037515;28;20204;-53
2023/01/06 03:10:43;;;;;;;20.00;13.87;;;;;;;;;;5020316;28;20220;-53
2023/01/06 03:13:16;;;;;;;18.13;13.37;;;;;;;;;;5036555;28;20634;-55
2023/01/06 03:15:43;;;;;;;17.77;12.67;;;;;;;;;;5019981;28;20227;-54
2023/01/06 03:18:11;;;;;;;18.03;13.57;;;;;;;;;;5037207;28;20220;-55
2023/01/06 03:20:38;;;;;;;15.00;12.23;;;;;;;;;;5036207;28;20291;-55
2023/01/06 03:23:05;;;;;;;16.93;12.33;;;;;;;;;;5036404;28;20278;-56
2023/01/06 03:25:33;;;;;;;16.13;11.80;;;;;;;;;;5037062;28;20212;-53
2023/01/06 03:28:00;;;;;;;16.90;12.23;;;;;;;;;;5037007;28;20231;-57
2023/01/06 03:30:42;;;;;;;15.53;11.53;;;;;;;;;;5035892;28;20272;-55
2023/01/06 03:33:26;;;;;;;15.97;11.17;;;;;;;;;;5020025;28;20193;-56
2023/01/06 03:36:23;;;;;;;17.73;10.20;;;;;;;;;;5020130;28;20254;-54
2023/01/06 03:39:09;;;;;;;15.97;10.77;;;;;;;;;;5034896;28;20608;-54
2023/01/06 03:44:51;;;;;;;14.97;11.27;;;;;;;;;;5022517;28;20221;-54
2023/01/06 03:47:29;;;;;;;15.50;9.93;;;;;;;;;;5019916;28;20212;-57
2023/01/06 03:50:05;;;;;;;16.87;12.23;;;;;;;;;;5035984;28;20629;-55
2023/01/06 03:52:37;;;;;;;14.93;11.00;;;;;;;;;;5035711;28;20228;-53
2023/01/06 03:55:11;;;;;;;15.70;9.83;;;;;;;;;;5019479;28;20220;-56
2023/01/06 03:57:43;;;;;;;12.43;9.23;;;;;;;;;;5019826;28;20212;-57
2023/01/06 04:00:19;;;;;;;14.10;10.03;;;;;;;;;;5019607;28;20216;-54
2023/01/06 04:02:54;;;;;;;13.27;9.47;;;;;;;;;;5020497;28;20197;-52
2023/01/06 04:05:25;;;;;;;15.60;11.03;;;;;;;;;;5035443;28;20216;-55
2023/01/06 04:07:53;;;;;;;16.60;11.43;;;;;;;;;;5018441;28;20201;-57
2023/01/06 04:10:22;;;;;;;16.33;11.57;;;;;;;;;;5019421;28;20219;-51
2023/01/06 04:12:53;;;;;;;16.23;12.60;;;;;;;;;;5035333;28;20233;-54
2023/01/06 04:15:28;;;;;;;18.57;11.20;;;;;;;;;;5052050;28;20200;-54
2023/01/06 04:17:55;;;;;;;16.47;11.77;;;;;;;;;;5036171;28;20207;-54
2023/01/06 04:20:27;;;;;;;18.77;11.90;;;;;;;;;;5035277;28;20209;-55
2023/01/06 04:23:03;;;;;;;19.47;13.07;;;;;;;;;;5035064;28;20618;-54
2023/01/06 04:25:35;;;;;;;17.97;12.50;;;;;;;;;;5035243;28;20235;-55
2023/01/06 04:28:08;;;;;;;18.57;12.17;;;;;;;;;;5035974;28;20205;-57
2023/01/06 04:30:35;;;;;;;19.37;12.47;;;;;;;;;;5034785;28;20263;-57
2023/01/06 04:33:02;;;;;;;17.77;12.40;;;;;;;;;;5035727;28;20212;-55
2023/01/06 04:35:30;;;;;;;16.87;11.53;;;;;;;;;;5035894;28;20626;-55
2023/01/06 04:38:02;;;;;;;16.17;12.00;;;;;;;;;;5034947;28;20303;-56
2023/01/06 04:40:29;;;;;;;17.40;11.63;;;;;;;;;;5035779;28;20219;-55
2023/01/06 04:43:05;;;;;;;16.47;10.90;;;;;;;;;;5035649;28;20244;-56
2023/01/06 04:45:34;;;;;;;14.77;10.27;;;;;;;;;;5035449;28;20231;-58
2023/01/06 04:48:01;;;;;;;21.27;12.37;;;;;;;;;;5035660;28;20208;-57
2023/01/06 04:50:28;;;;;;;16.57;11.77;;;;;;;;;;5035581;28;20224;-53
2023/01/06 04:52:55;;;;;;;17.33;11.53;;;;;;;;;;5035529;28;20312;-53
2023/01/06 04:55:22;;;;;;;17.07;11.20;;;;;;;;;;5035418;28;20574;-55
2023/01/06 04:57:49;;;;;;;16.10;11.77;;;;;;;;;;5035267;28;20226;-57
2023/01/06 05:00:17;;;;;;;19.60;12.07;;;;;;;;;;5035468;28;20209;-54
2023/01/06 05:02:44;;;;;;;16.73;10.50;;;;;;;;;;5035297;28;20213;-56
2023/01/06 05:05:12;;;;;;;15.23;10.37;;;;;;;;;;5035246;28;20216;-56
2023/01/06 05:07:39;;;;;;;18.33;10.47;;;;;;;;;;5035372;28;20205;-53
2023/01/06 05:10:08;;;;;;;17.83;11.40;;;;;;;;;;5035110;28;20205;-54
2023/01/06 05:12:35;;;;;;;16.83;11.60;;;;;;;;;;5034867;28;20224;-52
2023/01/06 05:15:03;;;;;;;14.83;11.03;;;;;;;;;;5034900;28;20541;-54
2023/01/06 05:17:31;;;;;;;16.87;11.67;;;;;;;;;;5035071;28;20599;-59
2023/01/06 05:19:58;;;;;;;17.93;12.43;;;;;;;;;;5034145;28;20212;-54
2023/01/06 05:22:25;;;;;;;17.00;10.53;;;;;;;;;;5034837;28;20215;-54
2023/01/06 05:24:52;;;;;;;16.60;11.10;;;;;;;;;;5034708;28;20212;-55
2023/01/06 05:27:19;;;;;;;14.83;10.07;;;;;;;;;;5034234;28;20235;-57
2023/01/06 05:29:46;;;;;;;14.70;8.97;;;;;;;;;;5035148;28;20220;-55
2023/01/06 05:32:13;;;;;;;13.83;8.53;;;;;;;;;;5034455;28;20548;-55
2023/01/06 05:34:41;;;;;;;12.30;8.47;;;;;;;;;;5034557;28;20208;-57
2023/01/06 05:37:08;;;;;;;14.07;9.57;;;;;;;;;;5034617;28;20204;-54
2023/01/06 05:39:35;;;;;;;14.30;10.50;;;;;;;;;;5034733;28;20204;-56
2023/01/06 05:42:02;;;;;;;15.07;10.30;;;;;;;;;;5034510;28;20236;-54
2023/01/06 05:44:29;;;;;;;16.20;9.93;;;;;;;;;;5034714;28;20567;-55
2023/01/06 05:46:56;;;;;;;15.77;10.03;;;;;;;;;;5033651;28;20292;-57
2023/01/06 05:49:23;;;;;;;16.13;9.57;;;;;;;;;;5034612;28;20212;-54
2023/01/06 05:51:50;;;;;;;15.23;9.63;;;;;;;;;;5034497;28;20712;-62
2023/01/06 05:54:18;;;;;;;13.57;8.87;;;;;;;;;;5034460;28;20213;-53
2023/01/06 05:56:45;;;;;;;13.20;8.77;;;;;;;;;;5034499;28;20209;-53
2023/01/06 05:59:12;;;;;;;12.20;8.03;;;;;;;;;;5034305;28;20286;-57
2023/01/06 06:01:39;;;;;;;12.53;9.27;;;;;;;;;;5034375;28;20258;-57
2023/01/06 06:04:06;;;;;;;12.40;7.73;;;;;;;;;;5034038;28;20216;-56
2023/01/06 06:06:33;;;;;;;10.50;6.63;;;;;;;;;;5034080;28;20526;-55
2023/01/06 06:09:04;;;;;;;11.03;7.07;;;;;;;;;;5033837;28;20208;-57
2023/01/06 06:11:31;;;;;;;10.07;7.03;;;;;;;;;;5034010;28;20259;-58
2023/01/06 06:13:58;;;;;;;10.83;7.27;;;;;;;;;;5033901;28;20220;-55
2023/01/06 06:16:26;;;;;;;11.13;6.63;;;;;;;;;;5033820;28;20215;-57
2023/01/06 06:18:55;;;;;;;11.30;6.83;;;;;;;;;;5033775;28;20220;-55
2023/01/06 06:21:25;;;;;;;9.93;6.77;;;;;;;;;;5033972;28;20215;-58
2023/01/06 06:23:53;;;;;;;11.57;7.97;;;;;;;;;;5034042;28;20556;-58
2023/01/06 06:26:21;;;;;;;12.97;8.50;;;;;;;;;;5033602;28;20665;-59
2023/01/06 06:28:49;;;;;;;13.97;8.40;;;;;;;;;;5024339;28;20650;-63
2023/01/06 06:31:19;;;;;;;12.10;8.13;;;;;;;;;;5034585;28;20316;-54
2023/01/06 06:33:49;;;;;;;10.60;7.43;;;;;;;;;;5036951;28;20673;-58
2023/01/06 06:36:16;;;;;;;10.50;7.60;;;;;;;;;;5016196;28;20552;-59
2023/01/06 06:38:45;;;;;;;11.40;6.77;;;;;;;;;;5032953;28;20225;-55
2023/01/06 06:41:12;;;;;;;7.93;5.97;;;;;;;;;;5036794;28;20232;-58
2023/01/06 06:43:39;;;;;;;10.13;6.00;;;;;;;;;;5036405;28;20572;-54
2023/01/06 06:46:07;;;;;;;8.73;6.30;;;;;;;;;;5036896;28;20323;-57
2023/01/06 06:48:35;;;;;;;12.03;6.53;;;;;;;;;;5036837;28;20240;-59
2023/01/06 06:51:05;;;;;;;9.23;6.43;;;;;;;;;;5037000;28;20224;-55
2023/01/06 06:53:33;;;;;;;9.13;6.00;;;;;;;;;;5036790;28;20571;-59
2023/01/06 06:56:01;;;;;;;8.87;6.23;;;;;;;;;;5036722;28;20306;-57
2023/01/06 06:58:28;;;;;;;8.93;6.03;;;;;;;;;;5036781;28;20251;-58
2023/01/06 07:00:56;;;;;;;10.90;7.47;;;;;;;;;;5036311;28;20248;-60
2023/01/06 07:03:24;;;;;;;10.60;6.90;;;;;;;;;;5036530;28;20674;-52
2023/01/06 07:05:51;;;;;;;10.70;7.50;;;;;;;;;;5036721;28;20232;-63
2023/01/06 07:08:19;;;;;;;11.30;7.20;;;;;;;;;;5036410;28;20237;-58
2023/01/06 07:10:46;;;;;;;11.83;7.80;;;;;;;;;;5035668;28;20263;-56
2023/01/06 07:13:13;;;;;;;10.43;7.33;;;;;;;;;;5035441;28;20692;-58
2023/01/06 07:15:40;;;;;;;11.63;7.43;;;;;;;;;;5020895;28;20233;-59
2023/01/06 07:18:08;;;;;;;9.87;6.90;;;;;;;;;;5016111;28;20729;-58
2023/01/06 07:20:36;;;;;;;11.87;7.60;;;;;;;;;;5016601;28;20291;-60
2023/01/06 07:23:04;;;;;;;11.47;7.20;;;;;;;;;;5016630;28;20229;-57
2023/01/06 07:25:31;;;;;;;11.20;6.77;;;;;;;;;;5022376;28;20236;-60
2023/01/06 07:28:04;;;;;;;9.57;6.97;;;;;;;;;;5023975;28;20216;-58
2023/01/06 07:30:32;;;;;;;8.53;6.30;;;;;;;;;;5023779;28;20661;-55
2023/01/06 07:32:59;;;;;;;13.00;6.90;;;;;;;;;;5024033;28;20267;-64
2023/01/06 07:35:27;;;;;;;10.53;6.90;;;;;;;;;;5033138;28;20247;-60
2023/01/06 07:37:54;;;;;;;9.10;6.73;;;;;;;;;;5031851;28;20232;-54
2023/01/06 07:40:24;;;;;;;10.50;7.27;;;;;;;;;;5035779;28;20262;-52
2023/01/06 07:42:51;;;;;;;11.00;7.20;;;;;;;;;;5034928;28;20309;-60
2023/01/06 07:45:18;;;;;;;20.60;10.07;;;;;;;;;;5036045;28;20233;-61
2023/01/06 07:47:45;;;;;;;11.93;8.07;;;;;;;;;;5035042;28;20902;-65
2023/01/06 07:50:12;;;;;;;44.47;22.33;;;;;;;;;;5033741;28;20302;-62
2023/01/06 07:52:39;;;;;;;11.23;7.60;;;;;;;;;;5031081;28;20244;-62
2023/01/06 07:55:07;;;;;;;18.57;10.17;;;;;;;;;;5034544;28;20221;-61
2023/01/06 07:57:34;;;;;;;23.57;11.80;;;;;;;;;;5035305;28;20217;-61
2023/01/06 08:00:01;;;;;;;50.40;18.63;;;;;;;;;;5035254;28;20262;-61
2023/01/06 08:02:38;;;;;;;32.67;14.10;;;;;;;;;;5035703;28;20221;-60
2023/01/06 08:05:05;;;;;;;10.83;7.37;;;;;;;;;;5035241;28;20228;-60
2023/01/06 08:07:32;;;;;;;10.83;7.00;;;;;;;;;;5035611;28;20228;-62
2023/01/06 08:09:59;;;;;;;9.40;6.90;;;;;;;;;;5034123;28;20232;-62
2023/01/06 08:12:27;;;;;;;9.13;5.97;;;;;;;;;;5034346;28;20240;-61
2023/01/06 08:14:53;;;;;;;8.90;6.43;;;;;;;;;;5035112;28;20244;-62
2023/01/06 08:17:21;;;;;;;10.70;7.10;;;;;;;;;;5035021;28;20232;-60
2023/01/06 08:19:48;;;;;;;9.20;6.07;;;;;;;;;;5035035;28;20228;-62
2023/01/06 08:22:15;;;;;;;11.30;6.60;;;;;;;;;;5034146;28;20239;-61
2023/01/06 08:24:42;;;;;;;9.90;6.63;;;;;;;;;;5035519;28;20614;-60
2023/01/06 08:27:10;;;;;;;8.23;6.30;;;;;;;;;;5033845;28;20650;-61
2023/01/06 08:29:37;;;;;;;10.20;7.13;;;;;;;;;;5033743;28;20605;-60
2023/01/06 08:32:04;;;;;;;11.50;6.97;;;;;;;;;;5034853;28;20232;-57
2023/01/06 08:34:37;;;;;;;11.10;7.73;;;;;;;;;;5035270;28;20231;-58
2023/01/06 08:37:04;;;;;;;11.17;8.00;;;;;;;;;;5021228;28;20244;-58
2023/01/06 08:39:31;;;;;;;13.23;7.50;;;;;;;;;;5014853;28;20237;-61
2023/01/06 08:41:58;;;;;;;9.27;6.60;;;;;;;;;;5015195;28;20275;-58
2023/01/06 08:44:25;;;;;;;12.50;7.90;;;;;;;;;;5015890;28;20206;-57
2023/01/06 08:46:52;;;;;;;8.70;5.90;;;;;;;;;;5029002;28;20267;-61
2023/01/06 08:49:19;;;;;;;14.07;8.17;;;;;;;;;;5035116;28;20231;-61
2023/01/06 08:51:47;;;;;;;11.50;7.43;;;;;;;;;;5035468;28;20635;-58
2023/01/06 08:54:14;;;;;;;11.67;7.90;;;;;;;;;;5035501;28;20263;-58
2023/01/06 08:56:43;;;;;;;11.77;7.33;;;;;;;;;;5034270;28;20270;-59
2023/01/06 08:59:15;;;;;;;10.63;6.97;;;;;;;;;;5035492;28;20215;-58
2023/01/06 09:01:43;;;;;;;11.07;7.90;;;;;;;;;;5035146;28;20259;-56
2023/01/06 09:04:11;;;;;;;11.70;7.77;;;;;;;;;;5034447;28;20197;-59
2023/01/06 09:06:41;;;;;;;10.60;7.83;;;;;;;;;;5033570;28;20217;-60
2023/01/06 09:09:10;;;;;;;10.60;7.77;;;;;;;;;;5033920;28;20208;-57
2023/01/06 09:11:45;;;;;;;10.37;7.50;;;;;;;;;;5034681;28;20219;-59
2023/01/06 09:14:13;;;;;;;10.27;7.30;;;;;;;;;;5034187;28;20243;-57
2023/01/06 09:16:40;;;;;;;9.83;6.53;;;;;;;;;;5035106;28;20209;-61
2023/01/06 09:19:09;;;;;;;9.50;6.57;;;;;;;;;;5034781;28;20294;-59
2023/01/06 09:21:37;;;;;;;10.33;6.83;;;;;;;;;;5034885;28;20208;-59
2023/01/06 09:24:04;;;;;;;10.77;7.33;;;;;;;;;;5033897;28;20212;-60
2023/01/06 09:26:31;;;;;;;10.23;6.70;;;;;;;;;;5033038;28;20203;-59
2023/01/06 09:28:58;;;;;;;9.70;6.53;;;;;;;;;;5033258;28;20209;-61
2023/01/06 09:31:26;;;;;;;9.70;7.47;;;;;;;;;;5033921;28;20212;-59
2023/01/06 09:33:53;;;;;;;11.17;7.13;;;;;;;;;;5034538;28;20608;-59
2023/01/06 09:36:21;;;;;;;12.30;7.40;;;;;;;;;;5034272;28;20216;-58
2023/01/06 09:38:48;;;;;;;9.23;6.70;;;;;;;;;;5033084;28;20586;-59
2023/01/06 09:41:23;;;;;;;9.83;6.73;;;;;;;;;;5033383;28;20204;-57
2023/01/06 09:43:53;;;;;;;9.80;6.93;;;;;;;;;;5033154;28;20302;-59
2023/01/06 09:46:33;;;;;;;12.67;6.97;;;;;;;;;;5033211;28;20297;-59
2023/01/06 09:49:08;;;;;;;9.30;7.03;;;;;;;;;;5033527;28;20303;-59
2023/01/06 09:51:36;;;;;;;11.50;6.47;;;;;;;;;;5034497;28;20504;-56
2023/01/06 09:54:17;;;;;;;10.47;6.87;;;;;;;;;;5033801;28;20224;-57
2023/01/06 09:56:48;;;;;;;8.23;6.10;;;;;;;;;;5033337;28;20193;-59
2023/01/06 09:59:23;;;;;;;10.37;6.70;;;;;;;;;;5034047;28;20196;-59
2023/01/06 10:01:52;;;;;;;8.87;6.13;;;;;;;;;;5033127;28;20295;-58
2023/01/06 10:04:24;;;;;;;9.10;5.90;;;;;;;;;;5034147;28;20220;-57
2023/01/06 10:06:51;;;;;;;9.40;6.03;;;;;;;;;;5032965;28;20586;-56
2023/01/06 10:09:25;;;;;;;10.80;6.37;;;;;;;;;;5026526;28;20213;-61
2023/01/06 10:12:02;;;;;;;10.63;6.63;;;;;;;;;;5031963;28;20232;-57
2023/01/06 10:14:47;;;;;;;9.53;5.83;;;;;;;;;;5009637;28;20259;-60
2023/01/06 10:17:32;;;;;;;7.23;5.10;;;;;;;;;;5030558;28;20220;-57
2023/01/06 10:20:17;;;;;;;9.23;5.83;;;;;;;;;;5031632;28;20216;-59
2023/01/06 10:23:00;;;;;;;10.70;6.40;;;;;;;;;;5032704;28;20248;-59
2023/01/06 10:25:39;;;;;;;10.77;5.43;;;;;;;;;;5031941;28;20557;-52
2023/01/06 10:28:30;;;;;;;10.53;6.07;;;;;;;;;;5033114;28;20611;-50
2023/01/06 10:31:00;;;;;;;8.80;5.90;;;;;;;;;;5031357;28;20220;-50
2023/01/06 10:33:34;;;;;;;8.13;5.80;;;;;;;;;;5032067;28;20232;-51
2023/01/06 10:36:01;;;;;;;8.87;5.50;;;;;;;;;;5030808;28;20263;-56
2023/01/06 10:38:31;;;;;;;10.70;6.47;;;;;;;;;;5032460;28;20242;-59
2023/01/06 10:41:28;;;;;;;8.27;5.80;;;;;;;;;;5032294;28;20225;-52
2023/01/06 10:43:56;;;;;;;9.47;6.10;;;;;;;;;;5029037;28;20414;-52
2023/01/06 10:46:33;;;;;;;8.23;5.53;;;;;;;;;;5030714;28;20278;-60
2023/01/06 10:49:02;;;;;;;8.83;5.83;;;;;;;;;;5032639;28;20232;-61
2023/01/06 10:51:39;;;;;;;9.93;6.33;;;;;;;;;;5032562;28;20315;-61
2023/01/06 10:54:13;;;;;;;7.90;5.53;;;;;;;;;;5030857;28;20251;-58
2023/01/06 10:56:45;;;;;;;6.90;5.10;;;;;;;;;;5026093;28;20236;-60
2023/01/06 10:59:13;;;;;;;8.07;5.77;;;;;;;;;;5011351;28;20229;-59
2023/01/06 11:01:52;;;;;;;8.00;5.80;;;;;;;;;;5028143;28;20235;-59
2023/01/06 11:04:20;;;;;;;9.37;5.93;;;;;;;;;;5032233;28;20247;-60
2023/01/06 11:06:53;;;;;;;9.13;5.87;;;;;;;;;;5031997;28;20309;-61
2023/01/06 11:09:29;;;;;;;8.53;6.13;;;;;;;;;;5031349;28;20229;-63
2023/01/06 11:11:59;;;;;;;8.57;6.40;;;;;;;;;;5032183;28;20236;-62
2023/01/06 11:14:31;;;;;;;8.37;5.87;;;;;;;;;;5030520;28;20244;-62
2023/01/06 11:17:03;;;;;;;7.83;6.07;;;;;;;;;;5029126;28;20228;-61
2023/01/06 11:19:34;;;;;;;11.20;6.13;;;;;;;;;;5031338;28;20228;-60
2023/01/06 11:22:02;;;;;;;10.33;6.30;;;;;;;;;;5032843;28;20715;-63
2023/01/06 11:24:30;;;;;;;10.43;6.70;;;;;;;;;;5032441;28;20220;-61
2023/01/06 11:27:14;;;;;;;9.60;6.47;;;;;;;;;;5019256;28;20244;-60
2023/01/06 11:29:42;;;;;;;8.60;6.17;;;;;;;;;;5024177;28;20599;-59
2023/01/06 11:32:16;;;;;;;12.57;7.33;;;;;;;;;;5033476;28;20256;-61
2023/01/06 11:35:10;;;;;;;9.23;6.00;;;;;;;;;;5032122;28;20243;-60
2023/01/06 11:37:41;;;;;;;11.83;7.70;;;;;;;;;;5035006;28;20251;-60
2023/01/06 11:40:26;;;;;;;9.77;6.90;;;;;;;;;;5033606;28;20225;-60
2023/01/06 11:42:55;;;;;;;10.57;7.03;;;;;;;;;;5034806;28;20567;-59
2023/01/06 11:45:37;;;;;;;11.63;7.60;;;;;;;;;;5033080;28;20271;-58
2023/01/06 11:48:11;;;;;;;9.30;6.67;;;;;;;;;;5032269;28;20221;-59
2023/01/06 11:50:38;;;;;;;8.83;5.67;;;;;;;;;;5019248;28;20212;-61
2023/01/06 11:53:16;;;;;;;9.70;6.37;;;;;;;;;;5034042;28;20248;-57
2023/01/06 11:56:21;;;;;;;8.90;6.53;;;;;;;;;;5027324;28;20228;-53
2023/01/06 11:58:50;;;;;;;8.83;6.30;;;;;;;;;;5034800;28;20657;-57
2023/01/06 12:01:54;;;;;;;10.70;6.60;;;;;;;;;;5033508;28;20228;-55
2023/01/06 12:04:47;;;;;;;10.77;6.40;;;;;;;;;;5009034;28;20682;-57
2023/01/06 12:07:18;;;;;;;13.17;6.97;;;;;;;;;;5011354;28;20222;-53
2023/01/06 12:09:48;;;;;;;10.37;6.43;;;;;;;;;;5015300;28;20688;-57
2023/01/06 12:12:21;;;;;;;11.10;6.40;;;;;;;;;;4994521;28;20238;-60
2023/01/06 12:14:48;;;;;;;9.60;6.60;;;;;;;;;;5005605;28;20233;-60
2023/01/06 12:17:25;;;;;;;8.90;6.30;;;;;;;;;;5009175;28;20221;-61
2023/01/06 12:20:00;;;;;;;9.83;6.70;;;;;;;;;;4986547;28;20214;-60
2023/01/06 12:22:36;;;;;;;9.73;6.30;;;;;;;;;;5004403;28;20233;-61
2023/01/06 12:25:04;;;;;;;9.03;6.07;;;;;;;;;;5004175;28;20225;-60
2023/01/06 12:27:47;;;;;;;8.87;6.13;;;;;;;;;;5008082;28;20717;-54
2023/01/06 12:30:22;;;;;;;10.97;6.43;;;;;;;;;;5009410;28;20662;-61
2023/01/06 12:32:53;;;;;;;13.40;6.57;;;;;;;;;;4993714;28;20236;-60
2023/01/06 12:35:24;;;;;;;11.33;6.80;;;;;;;;;;5016249;28;20584;-61
2023/01/06 12:37:59;;;;;;;10.80;6.60;;;;;;;;;;5018711;28;20233;-60
2023/01/06 12:40:34;;;;;;;8.93;5.87;;;;;;;;;;5033960;28;20246;-61
2023/01/06 12:43:15;;;;;;;8.97;6.30;;;;;;;;;;5033232;28;20240;-60
2023/01/06 12:45:47;;;;;;;12.13;7.07;;;;;;;;;;5033385;28;20221;-61
2023/01/06 12:48:26;;;;;;;10.97;6.77;;;;;;;;;;5034564;28;20286;-60
2023/01/06 12:50:59;;;;;;;11.37;6.90;;;;;;;;;;5034421;28;20231;-60
2023/01/06 12:53:35;;;;;;;9.50;6.53;;;;;;;;;;5033270;28;20240;-59
2023/01/06 12:56:30;;;;;;;8.73;6.30;;;;;;;;;;5033587;28;20238;-61
2023/01/06 12:59:16;;;;;;;9.13;6.70;;;;;;;;;;5032249;28;20228;-60
2023/01/06 13:02:15;;;;;;;9.47;6.73;;;;;;;;;;5033547;28;20564;-57
2023/01/06 13:04:58;;;;;;;11.23;6.90;;;;;;;;;;5024044;28;20837;-57
2023/01/06 13:07:29;;;;;;;12.20;7.00;;;;;;;;;;5034014;28;20711;-60
2023/01/06 13:10:13;;;;;;;10.53;6.57;;;;;;;;;;5034301;28;20263;-60
2023/01/06 13:13:19;;;;;;;11.90;6.67;;;;;;;;;;5033472;28;20316;-60
2023/01/06 13:15:46;;;;;;;9.13;6.33;;;;;;;;;;5033883;28;20232;-56
2023/01/06 13:18:20;;;;;;;10.13;6.40;;;;;;;;;;5033003;28;20221;-55
2023/01/06 13:21:07;;;;;;;10.13;6.97;;;;;;;;;;5033830;28;20247;-55
2023/01/06 13:23:52;;;;;;;15.03;7.87;;;;;;;;;;5034192;28;20563;-56
2023/01/06 13:26:22;;;;;;;10.50;6.40;;;;;;;;;;5033593;28;20251;-57
2023/01/06 13:28:59;;;;;;;9.03;6.57;;;;;;;;;;5034153;28;20661;-55
2023/01/06 13:31:40;;;;;;;10.10;6.73;;;;;;;;;;5033159;28;20542;-55
2023/01/06 13:34:38;;;;;;;13.63;7.80;;;;;;;;;;5032568;28;20323;-57
2023/01/06 13:37:32;;;;;;;12.60;8.10;;;;;;;;;;5029078;28;20233;-56
2023/01/06 13:40:25;;;;;;;13.63;7.80;;;;;;;;;;5032427;28;20240;-58
2023/01/06 13:43:26;;;;;;;16.47;8.67;;;;;;;;;;5030837;28;20243;-60
2023/01/06 13:45:57;;;;;;;18.00;8.63;;;;;;;;;;5010951;28;20276;-60
2023/01/06 13:48:31;;;;;;;18.00;8.80;;;;;;;;;;5011781;28;20225;-60
2023/01/06 13:51:01;;;;;;;17.67;9.03;;;;;;;;;;4995359;28;20221;-58
2023/01/06 13:53:35;;;;;;;11.60;7.67;;;;;;;;;;5011564;28;20245;-60
2023/01/06 13:56:11;;;;;;;14.83;8.40;;;;;;;;;;5011245;28;20531;-55
2023/01/06 13:58:43;;;;;;;15.13;8.27;;;;;;;;;;5011977;28;20767;-57
2023/01/06 14:01:10;;;;;;;16.03;8.23;;;;;;;;;;5010290;28;20276;-58
2023/01/06 14:03:39;;;;;;;14.33;7.93;;;;;;;;;;5011838;28;20258;-56
2023/01/06 14:06:26;;;;;;;15.27;8.33;;;;;;;;;;5011003;28;20626;-59
2023/01/06 14:08:56;;;;;;;14.37;7.90;;;;;;;;;;4998906;28;20252;-51
2023/01/06 14:11:29;;;;;;;10.73;7.40;;;;;;;;;;4992567;28;20622;-52
2023/01/06 14:13:58;;;;;;;10.67;7.20;;;;;;;;;;5011583;28;20245;-57
2023/01/06 14:16:38;;;;;;;11.63;7.47;;;;;;;;;;5010004;28;20667;-53
2023/01/06 14:19:08;;;;;;;18.30;8.50;;;;;;;;;;5011096;28;20578;-55
2023/01/06 14:21:35;;;;;;;13.43;8.57;;;;;;;;;;5021696;28;20678;-52
2023/01/06 14:24:16;;;;;;;13.13;7.80;;;;;;;;;;5033302;28;20232;-57
2023/01/06 14:26:49;;;;;;;10.97;7.57;;;;;;;;;;5031974;28;20223;-52
2023/01/06 14:29:38;;;;;;;23.27;12.37;;;;;;;;;;5032993;28;20221;-52
2023/01/06 14:32:17;;;;;;;31.57;14.50;;;;;;;;;;5032978;28;20223;-57
2023/01/06 14:35:00;;;;;;;21.27;12.43;;;;;;;;;;5023161;28;20681;-55
2023/01/06 14:37:34;;;;;;;44.73;20.57;;;;;;;;;;5023707;28;20231;-53
2023/01/06 14:40:03;;;;;;;50.07;20.33;;;;;;;;;;5020804;28;20216;-55
2023/01/06 14:42:37;;;;;;;86.00;33.20;;;;;;;;;;5021037;28;20641;-57
2023/01/06 14:45:15;;;;;;;67.60;26.07;;;;;;;;;;5029489;28;20231;-55
2023/01/06 14:47:46;;;;;;;29.60;14.70;;;;;;;;;;5031319;28;20216;-54
2023/01/06 14:50:34;;;;;;;40.23;18.43;;;;;;;;;;5050983;28;20258;-50
2023/01/06 14:53:42;;;;;;;95.17;37.60;;;;;;;;;;5040832;28;20289;-51
2023/01/06 14:56:19;;;;;;;153.20;36.43;;;;;;;;;;5030932;28;21251;-53
2023/01/06 14:58:46;;;;;;;103.83;25.43;;;;;;;;;;5032784;28;20215;-51
2023/01/06 15:01:25;;;;;;;60.53;18.07;;;;;;;;;;5033214;28;20209;-53
2023/01/06 15:03:57;;;;;;;79.37;42.07;;;;;;;;;;5033594;28;20212;-50
2023/01/06 15:06:26;;;;;;;67.40;37.50;;;;;;;;;;5033649;28;20682;-55